createdAt,value
2018-09-14T00:01:32.006Z,96455.36
2018-09-14T00:04:01.036Z,96459.20
2018-09-14T00:06:29.351Z,96454.12
2018-09-14T00:08:57.829Z,96456.66
2018-09-14T00:11:26.263Z,96451.55
2018-09-14T00:13:55.131Z,96452.67
2018-09-14T00:16:23.544Z,96453.73
2018-09-14T00:18:52.159Z,96450.12
2018-09-14T00:21:20.565Z,96450.53
2018-09-14T00:23:49.023Z,96442.95
2018-09-14T00:26:17.456Z,96439.18
2018-09-14T00:28:45.888Z,96448.65
2018-09-14T00:31:14.734Z,96446.35
2018-09-14T00:33:43.686Z,96445.59
2018-09-14T00:36:12.053Z,96447.30
2018-09-14T00:38:40.577Z,96452.89
2018-09-14T00:41:09.116Z,96449.09
2018-09-14T00:43:37.515Z,96452.90
2018-09-14T00:46:06.216Z,96454.42
2018-09-14T00:48:34.929Z,96454.29
2018-09-14T00:51:03.372Z,96453.88
2018-09-14T00:53:32.295Z,96450.91
2018-09-14T00:56:00.776Z,96453.17
2018-09-14T00:58:29.213Z,96457.46
2018-09-14T01:00:57.585Z,96454.45
2018-09-14T01:03:26.154Z,96455.09
2018-09-14T01:05:54.587Z,96451.38
2018-09-14T01:08:23.664Z,96451.32
2018-09-14T01:10:52.202Z,96447.56
2018-09-14T01:13:20.761Z,96448.45
2018-09-14T01:15:49.330Z,96449.97
2018-09-14T01:18:17.819Z,96443.16
2018-09-14T01:20:46.519Z,96445.85
2018-09-14T01:23:14.905Z,96445.04
2018-09-14T01:25:43.374Z,96447.78
2018-09-14T01:28:12.744Z,96446.33
2018-09-14T01:30:41.186Z,96446.33
2018-09-14T01:33:09.777Z,96444.85
2018-09-14T01:35:43.423Z,96445.78
2018-09-14T01:38:11.767Z,96446.77
2018-09-14T01:40:40.164Z,96443.13
2018-09-14T01:43:08.696Z,96442.68
2018-09-14T01:45:37.153Z,96448.87
2018-09-14T01:48:05.506Z,96456.59
2018-09-14T01:50:33.826Z,96452.64
2018-09-14T01:53:02.258Z,96446.90
2018-09-14T01:55:32.297Z,96443.84
2018-09-14T01:58:00.640Z,96441.97
2018-09-14T02:00:28.984Z,96447.83
2018-09-14T02:02:57.331Z,96444.55
2018-09-14T02:05:25.678Z,96448.10
2018-09-14T02:07:56.338Z,96448.69
2018-09-14T02:10:24.925Z,96448.41
2018-09-14T02:12:54.167Z,96445.78
2018-09-14T02:15:23.141Z,96445.41
2018-09-14T02:17:51.512Z,96446.11
2018-09-14T02:20:20.206Z,96443.00
2018-09-14T02:22:49.714Z,96436.83
2018-09-14T02:25:20.062Z,96436.73
2018-09-14T02:27:49.741Z,96436.41
2018-09-14T02:30:18.332Z,96441.52
2018-09-14T02:32:46.664Z,96443.62
2018-09-14T02:35:15.107Z,96454.24
2018-09-14T02:37:43.520Z,96447.44
2018-09-14T02:40:11.877Z,96455.21
2018-09-14T02:42:40.340Z,96454.84
2018-09-14T02:45:08.758Z,96456.72
2018-09-14T02:47:37.193Z,96455.21
2018-09-14T02:50:05.589Z,96458.18
2018-09-14T02:52:35.344Z,96460.59
2018-09-14T02:55:03.852Z,96464.83
2018-09-14T02:57:32.167Z,96455.33
2018-09-14T03:00:00.690Z,96454.83
2018-09-14T03:02:29.016Z,96456.76
2018-09-14T03:04:57.363Z,96460.84
2018-09-14T03:07:25.760Z,96463.53
2018-09-14T03:09:54.208Z,96460.62
2018-09-14T03:12:24.129Z,96463.81
2018-09-14T03:14:52.567Z,96459.45
2018-09-14T03:17:20.952Z,96465.32
2018-09-14T03:19:49.373Z,96462.35
2018-09-14T03:22:17.813Z,96464.87
2018-09-14T03:24:48.191Z,96459.88
2018-09-14T03:27:16.575Z,96465.41
2018-09-14T03:29:46.513Z,96459.08
2018-09-14T03:32:15.056Z,96462.35
2018-09-14T03:34:43.340Z,96460.09
2018-09-14T03:37:11.936Z,96463.52
2018-09-14T03:39:42.816Z,96465.62
2018-09-14T03:42:11.268Z,96460.54
2018-09-14T03:44:40.718Z,96473.42
2018-09-14T03:47:09.095Z,96467.73
2018-09-14T03:49:37.526Z,96469.39
2018-09-14T03:52:06.118Z,96470.27
2018-09-14T03:54:34.472Z,96473.31
2018-09-14T03:57:05.091Z,96471.45
2018-09-14T03:59:36.477Z,96481.32
2018-09-14T04:02:05.783Z,96485.79
2018-09-14T04:04:34.492Z,96486.09
2018-09-14T04:07:02.958Z,96490.57
2018-09-14T04:09:32.048Z,96491.62
2018-09-14T04:12:00.764Z,96490.13
2018-09-14T04:14:29.276Z,96502.66
2018-09-14T04:16:57.649Z,96502.81
2018-09-14T04:19:25.968Z,96506.25
2018-09-14T04:21:54.504Z,96512.22
2018-09-14T04:24:22.964Z,96509.91
2018-09-14T04:26:51.432Z,96515.42
2018-09-14T04:29:20.607Z,96519.61
2018-09-14T04:31:48.986Z,96527.59
2018-09-14T04:34:17.319Z,96525.41
2018-09-14T04:36:45.770Z,96536.68
2018-09-14T04:39:14.192Z,96532.14
2018-09-14T04:41:42.641Z,96536.31
2018-09-14T04:44:11.109Z,96544.65
2018-09-14T04:46:39.542Z,96553.09
2018-09-14T04:49:07.923Z,96554.95
2018-09-14T04:51:37.811Z,96558.80
2018-09-14T04:54:06.221Z,96567.73
2018-09-14T04:56:34.567Z,96573.45
2018-09-14T04:59:03.021Z,96576.70
2018-09-14T05:01:31.331Z,96573.94
2018-09-14T05:03:59.761Z,96574.02
2018-09-14T05:06:28.099Z,96575.28
2018-09-14T05:08:56.429Z,96578.23
2018-09-14T05:11:24.848Z,96579.58
2018-09-14T05:13:53.421Z,96577.36
2018-09-14T05:16:24.262Z,96573.90
2018-09-14T05:18:52.656Z,96572.25
2018-09-14T05:21:22.146Z,96576.38
2018-09-14T05:23:50.495Z,96578.59
2018-09-14T05:26:18.924Z,96575.56
2018-09-14T05:28:47.312Z,96580.94
2018-09-14T05:31:16.985Z,96584.80
2018-09-14T05:33:45.304Z,96583.66
2018-09-14T05:36:13.804Z,96588.21
2018-09-14T05:38:42.145Z,96589.56
2018-09-14T05:41:10.528Z,96592.84
2018-09-14T05:43:39.027Z,96591.43
2018-09-14T05:46:08.916Z,96587.73
2018-09-14T05:48:37.265Z,96588.34
2018-09-14T05:51:08.312Z,96591.92
2018-09-14T05:53:36.708Z,96595.64
2018-09-14T05:56:05.108Z,96599.93
2018-09-14T05:58:33.497Z,96599.64
2018-09-14T06:01:01.852Z,96601.80
2018-09-14T06:03:30.224Z,96603.06
2018-09-14T06:05:59.776Z,96600.59
2018-09-14T06:08:28.217Z,96599.44
2018-09-14T06:10:56.596Z,96603.41
2018-09-14T06:13:25.175Z,96598.57
2018-09-14T06:15:53.661Z,96604.41
2018-09-14T06:18:24.469Z,96602.52
2018-09-14T06:20:53.062Z,96607.69
2018-09-14T06:23:21.405Z,96604.58
2018-09-14T06:25:50.013Z,96607.34
2018-09-14T06:28:18.371Z,96611.78
2018-09-14T06:30:49.070Z,96607.89
2018-09-14T06:33:17.499Z,96611.90
2018-09-14T06:35:45.997Z,96620.16
2018-09-14T06:38:14.353Z,96623.91
2018-09-14T06:40:43.943Z,96623.09
2018-09-14T06:43:12.829Z,96626.28
2018-09-14T06:45:41.419Z,96622.70
2018-09-14T06:48:11.188Z,96622.89
2018-09-14T06:50:39.575Z,96625.44
2018-09-14T06:53:07.904Z,96629.54
2018-09-14T06:55:37.639Z,96634.70
2018-09-14T06:58:06.049Z,96635.98
2018-09-14T07:00:36.669Z,96636.08
2018-09-14T07:03:05.919Z,96645.23
2018-09-14T07:05:34.440Z,96645.73
2018-09-14T07:08:03.478Z,96647.50
2018-09-14T07:10:32.001Z,96652.05
2018-09-14T07:13:00.598Z,96648.70
2018-09-14T07:15:30.369Z,96646.44
2018-09-14T07:17:58.794Z,96646.16
2018-09-14T07:20:27.198Z,96648.17
2018-09-14T07:22:55.643Z,96648.23
2018-09-14T07:25:24.042Z,96648.58
2018-09-14T07:27:52.697Z,96650.84
2018-09-14T07:30:21.082Z,96651.17
2018-09-14T07:32:49.493Z,96653.58
2018-09-14T07:35:18.138Z,96657.26
2018-09-14T07:37:46.606Z,96656.34
2018-09-14T07:40:15.000Z,96663.19
2018-09-14T07:42:43.370Z,96667.80
2018-09-14T07:45:13.216Z,96673.42
2018-09-14T07:47:43.999Z,96670.75
2018-09-14T07:50:13.437Z,96676.32
2018-09-14T07:52:45.185Z,96673.19
2018-09-14T07:55:13.553Z,96678.27
2018-09-14T07:57:41.941Z,96675.45
2018-09-14T08:00:10.283Z,96677.21
2018-09-14T08:02:38.892Z,96680.56
2018-09-14T08:05:07.295Z,96681.09
2018-09-14T08:07:36.049Z,96684.77
2018-09-14T08:10:05.634Z,96684.52
2018-09-14T08:12:34.048Z,96692.11
2018-09-14T08:15:02.450Z,96696.66
2018-09-14T08:17:30.860Z,96694.40
2018-09-14T08:19:59.377Z,96698.08
2018-09-14T08:22:31.764Z,96697.45
2018-09-14T08:25:00.157Z,96699.47
2018-09-14T08:27:28.532Z,96702.81
2018-09-14T08:29:56.885Z,96706.23
2018-09-14T08:32:25.459Z,96708.69
2018-09-14T08:34:56.260Z,96712.28
2018-09-14T08:37:24.659Z,96715.66
2018-09-14T08:39:53.615Z,96708.45
2018-09-14T08:42:23.009Z,96713.50
2018-09-14T08:44:51.360Z,96717.45
2018-09-14T08:47:19.728Z,96723.34
2018-09-14T08:49:50.219Z,96726.39
2018-09-14T08:52:22.994Z,96719.92
2018-09-14T08:54:51.316Z,96723.16
2018-09-14T08:57:19.626Z,96725.86
2018-09-14T08:59:53.657Z,96726.52
2018-09-14T09:02:22.056Z,96723.23
2018-09-14T09:04:50.397Z,96724.05
2018-09-14T09:07:19.416Z,96719.95
2018-09-14T09:09:47.748Z,96723.97
2018-09-14T09:12:17.882Z,96727.79
2018-09-14T09:14:46.339Z,96735.78
2018-09-14T09:17:14.727Z,96729.87
2018-09-14T09:19:43.103Z,96730.34
2018-09-14T09:22:19.722Z,96733.95
2018-09-14T09:24:48.169Z,96733.95
2018-09-14T09:27:16.537Z,96727.52
2018-09-14T09:29:44.951Z,96732.29
2018-09-14T09:32:14.220Z,96729.75
2018-09-14T09:34:42.544Z,96726.72
2018-09-14T09:37:11.047Z,96726.69
2018-09-14T09:39:40.458Z,96727.89
2018-09-14T09:42:10.615Z,96731.78
2018-09-14T09:44:39.175Z,96731.11
2018-09-14T09:47:09.609Z,96728.22
2018-09-14T09:49:37.967Z,96725.17
2018-09-14T09:52:06.662Z,96728.33
2018-09-14T09:54:35.013Z,96728.56
2018-09-14T09:57:05.154Z,96726.27
2018-09-14T09:59:33.779Z,96724.78
2018-09-14T10:02:07.705Z,96723.07
2018-09-14T10:04:45.543Z,96730.45
2018-09-14T10:07:14.267Z,96723.47
2018-09-14T10:09:42.588Z,96723.61
2018-09-14T10:12:11.173Z,96723.67
2018-09-14T10:14:40.217Z,96725.34
2018-09-14T10:20:07.764Z,96726.34
2018-09-14T10:22:54.497Z,96726.41
2018-09-14T10:25:35.097Z,96725.81
2018-09-14T10:28:14.292Z,96720.38
2018-09-14T10:30:42.673Z,96716.87
2018-09-14T10:33:11.065Z,96716.34
2018-09-14T10:35:39.471Z,96716.34
2018-09-14T10:38:07.905Z,96720.91
2018-09-14T10:40:36.305Z,96719.09
2018-09-14T10:43:04.706Z,96719.78
2018-09-14T10:45:33.087Z,96718.19
2018-09-14T10:48:01.531Z,96719.31
2018-09-14T10:50:30.192Z,96719.31
2018-09-14T10:52:58.563Z,96722.76
2018-09-14T10:55:26.909Z,96725.45
2018-09-14T10:57:55.537Z,96721.34
2018-09-14T11:03:09.429Z,96726.58
2018-09-14T11:05:38.164Z,96715.67
2018-09-14T11:08:06.796Z,96720.89
2018-09-14T11:10:51.059Z,96718.80
2018-09-14T11:13:20.282Z,96713.32
2018-09-14T11:15:48.877Z,96718.55
2018-09-14T11:18:17.339Z,96719.52
2018-09-14T11:20:45.731Z,96713.38
2018-09-14T11:23:14.964Z,96714.94
2018-09-14T11:25:43.478Z,96714.82
2018-09-14T11:28:11.767Z,96713.31
2018-09-14T11:30:40.199Z,96704.39
2018-09-14T11:33:08.783Z,96706.95
2018-09-14T11:35:37.228Z,96706.70
2018-09-14T11:38:05.912Z,96704.48
2018-09-14T11:40:34.276Z,96704.18
2018-09-14T11:43:24.856Z,96705.63
2018-09-14T11:45:53.530Z,96700.61
2018-09-14T11:48:22.084Z,96697.60
2018-09-14T11:50:50.437Z,96692.87
2018-09-14T11:53:18.871Z,96693.77
2018-09-14T11:55:47.300Z,96685.53
2018-09-14T11:58:15.772Z,96689.77
2018-09-14T12:00:45.103Z,96692.16
2018-09-14T12:03:13.422Z,96691.55
2018-09-14T12:05:41.757Z,96691.80
2018-09-14T12:08:10.343Z,96687.97
2018-09-14T12:10:38.724Z,96684.12
2018-09-14T12:13:07.112Z,96682.89
2018-09-14T12:15:35.627Z,96678.44
2018-09-14T12:18:04.090Z,96676.98
2018-09-14T12:20:32.446Z,96689.76
2018-09-14T12:23:00.885Z,96687.52
2018-09-14T12:25:29.300Z,96681.09
2018-09-14T12:27:57.789Z,96675.98
2018-09-14T12:30:26.318Z,96671.08
2018-09-14T12:32:55.121Z,96674.39
2018-09-14T12:35:23.446Z,96668.89
2018-09-14T12:37:51.841Z,96665.18
2018-09-14T12:40:20.179Z,96668.66
2018-09-14T12:42:48.581Z,96664.45
2018-09-14T12:45:16.933Z,96665.19
2018-09-14T12:47:45.275Z,96664.97
2018-09-14T12:50:13.737Z,96658.76
2018-09-14T12:52:42.119Z,96662.34
2018-09-14T12:55:10.573Z,96661.13
2018-09-14T12:57:38.959Z,96662.47
2018-09-14T13:00:08.008Z,96656.31
2018-09-14T13:02:36.688Z,96648.86
2018-09-14T13:05:05.335Z,96656.72
2018-09-14T13:07:33.723Z,96650.56
2018-09-14T13:10:02.065Z,96650.72
2018-09-14T13:12:30.558Z,96652.82
2018-09-14T13:14:59.166Z,96654.80
2018-09-14T13:17:27.516Z,96655.15
2018-09-14T13:19:55.895Z,96648.30
2018-09-14T13:22:24.427Z,96644.41
2018-09-14T13:24:52.831Z,96643.92
2018-09-14T13:27:21.245Z,96642.80
2018-09-14T13:29:49.657Z,96638.48
2018-09-14T13:32:18.131Z,96640.17
2018-09-14T13:34:46.586Z,96632.94
2018-09-14T13:37:15.003Z,96627.55
2018-09-14T13:39:43.419Z,96624.08
2018-09-14T13:42:11.937Z,96619.84
2018-09-14T13:44:40.344Z,96621.03
2018-09-14T13:47:08.761Z,96614.12
2018-09-14T13:49:37.167Z,96612.16
2018-09-14T13:52:05.703Z,96613.98
2018-09-14T13:54:34.088Z,96614.40
2018-09-14T13:57:02.479Z,96616.19
2018-09-14T13:59:30.894Z,96616.13
2018-09-14T14:01:59.357Z,96622.95
2018-09-14T14:04:27.783Z,96619.56
2018-09-14T14:06:56.157Z,96611.84
2018-09-14T14:09:24.567Z,96615.45
2018-09-14T14:11:53.025Z,96616.34
2018-09-14T14:14:21.499Z,96612.19
2018-09-14T14:16:50.077Z,96616.59
2018-09-14T14:19:18.501Z,96609.36
2018-09-14T14:21:46.918Z,96612.66
2018-09-14T14:24:15.365Z,96606.78
2018-09-14T14:26:43.734Z,96608.52
2018-09-14T14:29:12.209Z,96607.70
2018-09-14T14:31:40.595Z,96612.14
2018-09-14T14:34:09.323Z,96603.91
2018-09-14T14:36:37.823Z,96600.94
2018-09-14T14:39:08.424Z,96606.09
2018-09-14T14:41:36.902Z,96599.79
2018-09-14T14:44:05.507Z,96593.61
2018-09-14T14:46:33.943Z,96600.66
2018-09-14T14:49:02.646Z,96595.03
2018-09-14T14:51:31.307Z,96596.31
2018-09-14T14:53:59.679Z,96593.04
2018-09-14T14:56:28.014Z,96585.94
2018-09-14T14:58:56.503Z,96580.48
2018-09-14T15:01:24.999Z,96582.73
2018-09-14T15:03:53.434Z,96582.94
2018-09-14T15:06:21.899Z,96583.84
2018-09-14T15:08:50.283Z,96581.95
2018-09-14T15:11:18.679Z,96577.90
2018-09-14T15:13:59.904Z,96575.31
2018-09-14T15:16:28.367Z,96573.16
2018-09-14T15:22:00.888Z,96579.94
2018-09-14T15:24:29.295Z,96577.42
2018-09-14T15:26:57.669Z,96590.92
2018-09-14T15:29:26.069Z,96584.86
2018-09-14T15:31:54.413Z,96582.45
2018-09-14T15:34:22.811Z,96576.78
2018-09-14T15:36:51.843Z,96573.78
2018-09-14T15:39:20.266Z,96581.86
2018-09-14T15:41:48.658Z,96578.34
2018-09-14T15:44:17.318Z,96573.52
2018-09-14T15:46:45.703Z,96576.94
2018-09-14T15:49:14.151Z,96576.37
2018-09-14T15:51:42.677Z,96579.82
2018-09-14T15:54:11.047Z,96573.28
2018-09-14T15:56:39.424Z,96569.64
2018-09-14T15:59:08.660Z,96569.08
2018-09-14T16:01:37.007Z,96567.42
2018-09-14T16:04:05.399Z,96565.27
2018-09-14T16:06:33.923Z,96570.19
2018-09-14T16:09:02.375Z,96568.53
2018-09-14T16:11:30.779Z,96570.97
2018-09-14T16:13:59.501Z,96570.42
2018-09-14T16:16:27.847Z,96563.64
2018-09-14T16:18:56.412Z,96567.37
2018-09-14T16:21:24.808Z,96565.92
2018-09-14T16:23:53.200Z,96566.13
2018-09-14T16:26:22.119Z,96562.56
2018-09-14T16:28:50.580Z,96563.55
2018-09-14T16:31:19.008Z,96560.51
2018-09-14T16:33:47.462Z,96565.61
2018-09-14T16:36:15.875Z,96567.40
2018-09-14T16:38:44.217Z,96569.77
2018-09-14T16:41:12.563Z,96572.39
2018-09-14T16:43:41.255Z,96569.42
2018-09-14T16:46:10.743Z,96575.84
2018-09-14T16:48:39.229Z,96569.29
2018-09-14T16:51:07.663Z,96572.19
2018-09-14T16:53:37.259Z,96572.36
2018-09-14T16:56:05.651Z,96571.21
2018-09-14T16:58:34.071Z,96572.69
2018-09-14T17:01:02.515Z,96574.47
2018-09-14T17:03:31.026Z,96573.52
2018-09-14T17:05:59.517Z,96572.36
2018-09-14T17:08:27.927Z,96575.25
2018-09-14T17:10:56.578Z,96575.72
2018-09-14T17:13:24.939Z,96573.75
2018-09-14T17:15:53.384Z,96583.66
2018-09-14T17:18:21.737Z,96581.92
2018-09-14T17:20:50.176Z,96583.70
2018-09-14T17:23:18.609Z,96582.30
2018-09-14T17:25:46.999Z,96586.00
2018-09-14T17:28:15.428Z,96587.00
2018-09-14T17:30:43.836Z,96592.34
2018-09-14T17:33:12.184Z,96590.70
2018-09-14T17:35:40.842Z,96594.11
2018-09-14T17:38:09.245Z,96600.16
2018-09-14T17:40:37.580Z,96600.61
2018-09-14T17:43:06.073Z,96603.99
2018-09-14T17:45:34.408Z,96603.29
2018-09-14T17:48:02.912Z,96608.35
2018-09-14T17:50:31.334Z,96609.87
2018-09-14T17:52:59.760Z,96607.34
2018-09-14T17:55:28.165Z,96615.83
2018-09-14T17:57:56.708Z,96619.64
2018-09-14T18:00:25.105Z,96622.36
2018-09-14T18:02:53.461Z,96625.88
2018-09-14T18:05:21.853Z,96624.94
2018-09-14T18:07:50.276Z,96632.59
2018-09-14T18:10:18.636Z,96634.34
2018-09-14T18:12:47.101Z,96639.99
2018-09-14T18:15:15.490Z,96632.14
2018-09-14T18:17:43.874Z,96634.39
2018-09-14T18:20:12.325Z,96639.67
2018-09-14T18:22:40.852Z,96635.25
2018-09-14T18:25:09.414Z,96623.96
2018-09-14T18:27:37.871Z,96616.42
2018-09-14T18:30:06.418Z,96620.69
2018-09-14T18:32:34.734Z,96627.88
2018-09-14T18:35:03.524Z,96630.94
2018-09-14T18:37:31.940Z,96634.50
2018-09-14T18:40:00.767Z,96634.88
2018-09-14T18:42:29.240Z,96632.67
2018-09-14T18:44:57.631Z,96636.23
2018-09-14T18:47:26.047Z,96635.52
2018-09-14T18:49:54.608Z,96637.46
2018-09-14T18:52:22.973Z,96637.29
2018-09-14T18:54:51.451Z,96637.42
2018-09-14T18:57:19.970Z,96638.91
2018-09-14T18:59:48.337Z,96641.45
2018-09-14T19:02:16.741Z,96636.83
2018-09-14T19:04:45.627Z,96636.51
2018-09-14T19:07:14.075Z,96636.68
2018-09-14T19:09:42.461Z,96639.14
2018-09-14T19:12:10.854Z,96637.05
2018-09-14T19:14:39.247Z,96643.91
2018-09-14T19:17:07.704Z,96647.84
2018-09-14T19:19:36.168Z,96648.88
2018-09-14T19:22:04.544Z,96654.78
2018-09-14T19:24:32.989Z,96664.47
2018-09-14T19:27:01.512Z,96665.42
2018-09-14T19:29:29.979Z,96670.94
2018-09-14T19:31:58.328Z,96659.95
2018-09-14T19:34:26.792Z,96661.97
2018-09-14T19:36:55.159Z,96663.16
2018-09-14T19:39:24.059Z,96669.06
2018-09-14T19:41:52.535Z,96664.11
2018-09-14T19:44:20.905Z,96666.66
2018-09-14T19:46:49.355Z,96667.97
2018-09-14T19:49:17.821Z,96674.08
2018-09-14T19:51:46.228Z,96673.13
2018-09-14T19:54:14.726Z,96677.30
2018-09-14T19:56:43.332Z,96678.28
2018-09-14T19:59:11.721Z,96679.41
2018-09-14T20:01:40.160Z,96677.50
2018-09-14T20:04:08.671Z,96680.19
2018-09-14T20:06:37.017Z,96676.91
2018-09-14T20:09:09.533Z,96671.32
2018-09-14T20:11:38.010Z,96667.16
2018-09-14T20:14:06.323Z,96658.81
2018-09-14T20:16:34.751Z,96663.80
2018-09-14T20:19:03.104Z,96663.41
2018-09-14T20:21:31.479Z,96667.36
2018-09-14T20:24:00.060Z,96664.92
2018-09-14T20:26:28.710Z,96666.52
2018-09-14T20:28:57.321Z,96671.95
2018-09-14T20:31:25.807Z,96677.60
2018-09-14T20:33:54.240Z,96677.39
2018-09-14T20:36:22.704Z,96673.89
2018-09-14T20:38:51.352Z,96674.03
2018-09-14T20:41:19.725Z,96681.16
2018-09-14T20:43:48.113Z,96681.69
2018-09-14T20:46:16.531Z,96687.88
2018-09-14T20:48:44.878Z,96682.58
2018-09-14T20:51:14.104Z,96688.48
2018-09-14T20:53:43.217Z,96695.31
2018-09-14T20:56:11.699Z,96694.40
2018-09-14T20:58:40.073Z,96683.45
2018-09-14T21:01:08.432Z,96684.80
2018-09-14T21:03:36.783Z,96679.08
2018-09-14T21:06:05.125Z,96682.76
2018-09-14T21:08:33.575Z,96672.70
2018-09-14T21:11:01.927Z,96673.02
2018-09-14T21:13:30.284Z,96670.86
2018-09-14T21:15:58.863Z,96672.20
2018-09-14T21:18:27.248Z,96673.97
2018-09-14T21:20:55.636Z,96679.47
2018-09-14T21:23:24.040Z,96681.90
2018-09-14T21:25:52.487Z,96687.22
2018-09-14T21:28:20.878Z,96690.69
2018-09-14T21:30:49.348Z,96691.84
2018-09-14T21:33:17.725Z,96686.00
2018-09-14T21:35:46.104Z,96679.32
2018-09-14T21:38:14.684Z,96687.28
2018-09-14T21:40:43.040Z,96690.02
2018-09-14T21:43:11.416Z,96685.61
2018-09-14T21:45:39.807Z,96681.09
2018-09-14T21:48:08.198Z,96679.75
2018-09-14T21:50:36.580Z,96681.09
2018-09-14T21:53:04.944Z,96679.95
2018-09-14T21:55:33.274Z,96676.02
2018-09-14T21:58:01.636Z,96675.73
2018-09-14T22:00:35.697Z,96681.50
2018-09-14T22:03:04.113Z,96677.13
2018-09-14T22:05:32.458Z,96677.55
2018-09-14T22:08:00.864Z,96684.58
2018-09-14T22:10:29.203Z,96686.64
2018-09-14T22:12:57.615Z,96683.47
2018-09-14T22:15:25.987Z,96680.14
2018-09-14T22:17:54.378Z,96680.95
2018-09-14T22:20:22.760Z,96681.56
2018-09-14T22:22:52.040Z,96678.40
2018-09-14T22:25:20.459Z,96677.06
2018-09-14T22:27:48.860Z,96671.62
2018-09-14T22:30:17.223Z,96674.02
2018-09-14T22:32:45.555Z,96673.41
2018-09-14T22:35:14.080Z,96676.11
2018-09-14T22:37:42.924Z,96683.95
2018-09-14T22:40:11.266Z,96687.84
2018-09-14T22:42:39.595Z,96677.45
2018-09-14T22:45:08.278Z,96674.16
2018-09-14T22:47:36.722Z,96672.62
2018-09-14T22:50:05.118Z,96680.13
2018-09-14T22:52:33.707Z,96684.27
2018-09-14T22:55:02.131Z,96689.12
2018-09-14T22:57:30.473Z,96695.81
2018-09-14T22:59:58.921Z,96698.58
2018-09-14T23:02:27.348Z,96703.23
2018-09-14T23:04:55.708Z,96698.81
2018-09-14T23:07:24.295Z,96696.02
2018-09-14T23:09:52.626Z,96686.52
2018-09-14T23:12:21.066Z,96690.75
2018-09-14T23:14:50.196Z,96697.95
2018-09-14T23:17:18.621Z,96702.58
2018-09-14T23:19:47.023Z,96699.41
2018-09-14T23:22:15.582Z,96697.25
2018-09-14T23:24:44.582Z,96701.80
2018-09-14T23:27:12.898Z,96701.08
2018-09-14T23:29:41.430Z,96710.14
2018-09-14T23:32:09.781Z,96709.63
2018-09-14T23:34:38.194Z,96703.14
2018-09-14T23:37:06.767Z,96705.19
2018-09-14T23:39:35.195Z,96701.59
2018-09-14T23:42:03.544Z,96697.67
2018-09-14T23:44:31.962Z,96696.42
2018-09-14T23:47:00.318Z,96695.61
2018-09-14T23:49:28.668Z,96694.49
2018-09-14T23:51:57.092Z,96692.02
2018-09-14T23:54:25.424Z,96689.34
2018-09-14T23:56:53.804Z,96689.11
2018-09-14T23:59:22.224Z,96680.85
